sensor_id;sensor_type;location;lat;lon;timestamp;P1;durP1;ratioP1;P2;durP2;ratioP2
9080;SDS011;13509;50.760;6.080;2022-10-17T00:01:18;6.33;;;5.00;;
9080;SDS011;13509;50.760;6.080;2022-10-17T00:03:46;7.03;;;4.97;;
9080;SDS011;13509;50.760;6.080;2022-10-17T00:06:14;10.93;;;5.03;;
9080;SDS011;13509;50.760;6.080;2022-10-17T00:08:42;7.43;;;5.03;;
9080;SDS011;13509;50.760;6.080;2022-10-17T00:11:12;5.60;;;4.70;;
9080;SDS011;13509;50.760;6.080;2022-10-17T00:13:41;8.23;;;4.90;;
9080;SDS011;13509;50.760;6.080;2022-10-17T00:16:09;8.67;;;5.17;;
9080;SDS011;13509;50.760;6.080;2022-10-17T00:18:38;7.13;;;4.83;;
9080;SDS011;13509;50.760;6.080;2022-10-17T00:21:13;7.83;;;5.43;;
9080;SDS011;13509;50.760;6.080;2022-10-17T00:23:41;8.17;;;4.97;;
9080;SDS011;13509;50.760;6.080;2022-10-17T00:26:09;8.80;;;5.03;;
9080;SDS011;13509;50.760;6.080;2022-10-17T00:28:38;7.33;;;5.57;;
9080;SDS011;13509;50.760;6.080;2022-10-17T00:31:06;10.67;;;5.10;;
9080;SDS011;13509;50.760;6.080;2022-10-17T00:33:34;5.07;;;4.60;;
9080;SDS011;13509;50.760;6.080;2022-10-17T00:36:06;7.27;;;5.13;;
9080;SDS011;13509;50.760;6.080;2022-10-17T00:38:35;8.70;;;4.80;;
9080;SDS011;13509;50.760;6.080;2022-10-17T00:41:03;5.83;;;4.90;;
9080;SDS011;13509;50.760;6.080;2022-10-17T00:46:14;7.13;;;4.87;;
9080;SDS011;13509;50.760;6.080;2022-10-17T00:48:43;8.13;;;4.90;;
9080;SDS011;13509;50.760;6.080;2022-10-17T00:51:12;6.83;;;4.73;;
9080;SDS011;13509;50.760;6.080;2022-10-17T00:53:41;6.50;;;4.77;;
9080;SDS011;13509;50.760;6.080;2022-10-17T00:56:09;6.90;;;5.27;;
9080;SDS011;13509;50.760;6.080;2022-10-17T00:58:38;9.63;;;5.13;;
9080;SDS011;13509;50.760;6.080;2022-10-17T01:01:06;7.87;;;4.57;;
9080;SDS011;13509;50.760;6.080;2022-10-17T01:03:34;6.23;;;4.77;;
9080;SDS011;13509;50.760;6.080;2022-10-17T01:06:03;6.27;;;5.10;;
9080;SDS011;13509;50.760;6.080;2022-10-17T01:08:32;8.70;;;4.90;;
9080;SDS011;13509;50.760;6.080;2022-10-17T01:11:02;9.10;;;5.30;;
9080;SDS011;13509;50.760;6.080;2022-10-17T01:13:33;4.67;;;4.17;;
9080;SDS011;13509;50.760;6.080;2022-10-17T01:16:05;5.13;;;4.27;;
9080;SDS011;13509;50.760;6.080;2022-10-17T01:18:37;7.07;;;4.80;;
9080;SDS011;13509;50.760;6.080;2022-10-17T01:21:14;7.27;;;4.30;;
9080;SDS011;13509;50.760;6.080;2022-10-17T01:26:35;8.30;;;4.60;;
9080;SDS011;13509;50.760;6.080;2022-10-17T01:29:19;7.40;;;4.60;;
9080;SDS011;13509;50.760;6.080;2022-10-17T01:31:58;7.30;;;4.97;;
9080;SDS011;13509;50.760;6.080;2022-10-17T01:34:30;11.20;;;4.80;;
9080;SDS011;13509;50.760;6.080;2022-10-17T01:37:01;6.43;;;4.70;;
9080;SDS011;13509;50.760;6.080;2022-10-17T01:39:35;8.73;;;4.50;;
9080;SDS011;13509;50.760;6.080;2022-10-17T01:42:13;6.80;;;4.60;;
9080;SDS011;13509;50.760;6.080;2022-10-17T01:44:45;7.73;;;4.77;;
9080;SDS011;13509;50.760;6.080;2022-10-17T01:47:17;6.70;;;4.73;;
9080;SDS011;13509;50.760;6.080;2022-10-17T01:49:47;5.60;;;4.73;;
9080;SDS011;13509;50.760;6.080;2022-10-17T01:52:17;5.40;;;4.40;;
9080;SDS011;13509;50.760;6.080;2022-10-17T01:54:47;7.63;;;4.57;;
9080;SDS011;13509;50.760;6.080;2022-10-17T01:57:17;5.60;;;4.10;;
9080;SDS011;13509;50.760;6.080;2022-10-17T01:59:46;7.87;;;5.07;;
9080;SDS011;13509;50.760;6.080;2022-10-17T02:02:17;8.10;;;4.77;;
9080;SDS011;13509;50.760;6.080;2022-10-17T02:04:45;7.63;;;4.60;;
9080;SDS011;13509;50.760;6.080;2022-10-17T02:07:15;6.00;;;4.77;;
9080;SDS011;13509;50.760;6.080;2022-10-17T02:09:43;5.57;;;5.03;;
9080;SDS011;13509;50.760;6.080;2022-10-17T02:14:58;5.30;;;4.57;;
9080;SDS011;13509;50.760;6.080;2022-10-17T02:17:33;7.47;;;4.47;;
9080;SDS011;13509;50.760;6.080;2022-10-17T02:20:05;8.20;;;4.50;;
9080;SDS011;13509;50.760;6.080;2022-10-17T02:22:37;9.33;;;5.13;;
9080;SDS011;13509;50.760;6.080;2022-10-17T02:25:08;4.97;;;4.23;;
9080;SDS011;13509;50.760;6.080;2022-10-17T02:27:40;5.73;;;4.50;;
9080;SDS011;13509;50.760;6.080;2022-10-17T02:30:10;6.53;;;4.50;;
9080;SDS011;13509;50.760;6.080;2022-10-17T02:32:41;8.50;;;4.60;;
9080;SDS011;13509;50.760;6.080;2022-10-17T02:35:15;6.33;;;4.17;;
9080;SDS011;13509;50.760;6.080;2022-10-17T02:37:44;7.63;;;4.40;;
9080;SDS011;13509;50.760;6.080;2022-10-17T02:40:14;6.77;;;4.03;;
9080;SDS011;13509;50.760;6.080;2022-10-17T02:42:44;5.30;;;4.30;;
9080;SDS011;13509;50.760;6.080;2022-10-17T02:45:12;6.43;;;4.80;;
9080;SDS011;13509;50.760;6.080;2022-10-17T02:47:45;5.63;;;4.33;;
9080;SDS011;13509;50.760;6.080;2022-10-17T02:50:15;8.37;;;4.80;;
9080;SDS011;13509;50.760;6.080;2022-10-17T02:52:44;6.90;;;4.60;;
9080;SDS011;13509;50.760;6.080;2022-10-17T02:55:15;5.73;;;4.50;;
9080;SDS011;13509;50.760;6.080;2022-10-17T02:57:45;8.07;;;5.00;;
9080;SDS011;13509;50.760;6.080;2022-10-17T03:00:15;9.07;;;4.80;;
9080;SDS011;13509;50.760;6.080;2022-10-17T03:02:46;10.37;;;4.93;;
9080;SDS011;13509;50.760;6.080;2022-10-17T03:05:15;7.47;;;4.17;;
9080;SDS011;13509;50.760;6.080;2022-10-17T03:07:44;5.17;;;4.17;;
9080;SDS011;13509;50.760;6.080;2022-10-17T03:10:12;8.33;;;4.43;;
9080;SDS011;13509;50.760;6.080;2022-10-17T03:12:40;7.60;;;4.43;;
9080;SDS011;13509;50.760;6.080;2022-10-17T03:15:09;6.80;;;4.70;;
9080;SDS011;13509;50.760;6.080;2022-10-17T03:17:37;5.30;;;4.73;;
9080;SDS011;13509;50.760;6.080;2022-10-17T03:20:07;8.50;;;4.60;;
9080;SDS011;13509;50.760;6.080;2022-10-17T03:22:35;7.07;;;4.40;;
9080;SDS011;13509;50.760;6.080;2022-10-17T03:25:04;7.97;;;4.40;;
9080;SDS011;13509;50.760;6.080;2022-10-17T03:27:32;6.90;;;4.60;;
9080;SDS011;13509;50.760;6.080;2022-10-17T03:30:00;5.23;;;4.30;;
9080;SDS011;13509;50.760;6.080;2022-10-17T03:32:28;6.23;;;4.37;;
9080;SDS011;13509;50.760;6.080;2022-10-17T03:34:56;8.53;;;4.73;;
9080;SDS011;13509;50.760;6.080;2022-10-17T03:37:26;5.60;;;3.93;;
9080;SDS011;13509;50.760;6.080;2022-10-17T03:39:55;5.40;;;4.10;;
9080;SDS011;13509;50.760;6.080;2022-10-17T03:42:23;8.70;;;4.60;;
9080;SDS011;13509;50.760;6.080;2022-10-17T03:44:51;5.13;;;4.33;;
9080;SDS011;13509;50.760;6.080;2022-10-17T03:47:19;5.60;;;4.73;;
9080;SDS011;13509;50.760;6.080;2022-10-17T03:49:47;12.73;;;4.33;;
9080;SDS011;13509;50.760;6.080;2022-10-17T03:52:18;6.17;;;4.17;;
9080;SDS011;13509;50.760;6.080;2022-10-17T03:54:48;4.93;;;4.17;;
9080;SDS011;13509;50.760;6.080;2022-10-17T03:57:16;5.00;;;3.97;;
9080;SDS011;13509;50.760;6.080;2022-10-17T03:59:44;6.83;;;4.10;;
9080;SDS011;13509;50.760;6.080;2022-10-17T04:02:12;5.03;;;4.53;;
9080;SDS011;13509;50.760;6.080;2022-10-17T04:04:40;6.27;;;4.70;;
9080;SDS011;13509;50.760;6.080;2022-10-17T04:07:09;6.23;;;4.43;;
9080;SDS011;13509;50.760;6.080;2022-10-17T04:09:37;5.47;;;4.33;;
9080;SDS011;13509;50.760;6.080;2022-10-17T04:12:06;7.03;;;4.57;;
9080;SDS011;13509;50.760;6.080;2022-10-17T04:14:35;5.87;;;4.23;;
9080;SDS011;13509;50.760;6.080;2022-10-17T04:17:03;11.00;;;4.47;;
9080;SDS011;13509;50.760;6.080;2022-10-17T04:19:32;4.87;;;4.27;;
9080;SDS011;13509;50.760;6.080;2022-10-17T04:22:00;8.53;;;4.57;;
9080;SDS011;13509;50.760;6.080;2022-10-17T04:24:29;6.93;;;4.77;;
9080;SDS011;13509;50.760;6.080;2022-10-17T04:26:57;6.67;;;4.33;;
9080;SDS011;13509;50.760;6.080;2022-10-17T04:29:27;8.77;;;4.87;;
9080;SDS011;13509;50.760;6.080;2022-10-17T04:31:55;5.50;;;4.40;;
9080;SDS011;13509;50.760;6.080;2022-10-17T04:34:23;7.33;;;4.40;;
9080;SDS011;13509;50.760;6.080;2022-10-17T04:36:51;5.97;;;4.50;;
9080;SDS011;13509;50.760;6.080;2022-10-17T04:39:20;6.70;;;4.20;;
9080;SDS011;13509;50.760;6.080;2022-10-17T04:41:48;4.30;;;3.80;;
9080;SDS011;13509;50.760;6.080;2022-10-17T04:44:16;5.43;;;4.00;;
9080;SDS011;13509;50.760;6.080;2022-10-17T04:46:47;8.47;;;4.00;;
9080;SDS011;13509;50.760;6.080;2022-10-17T04:49:15;7.53;;;4.13;;
9080;SDS011;13509;50.760;6.080;2022-10-17T04:51:43;4.90;;;3.97;;
9080;SDS011;13509;50.760;6.080;2022-10-17T04:54:11;8.53;;;4.23;;
9080;SDS011;13509;50.760;6.080;2022-10-17T04:56:39;7.50;;;4.17;;
9080;SDS011;13509;50.760;6.080;2022-10-17T04:59:08;5.60;;;3.80;;
9080;SDS011;13509;50.760;6.080;2022-10-17T05:01:36;7.00;;;4.10;;
9080;SDS011;13509;50.760;6.080;2022-10-17T05:04:05;6.70;;;3.93;;
9080;SDS011;13509;50.760;6.080;2022-10-17T05:06:33;5.70;;;4.20;;
9080;SDS011;13509;50.760;6.080;2022-10-17T05:09:02;8.50;;;4.33;;
9080;SDS011;13509;50.760;6.080;2022-10-17T05:11:31;5.20;;;4.27;;
9080;SDS011;13509;50.760;6.080;2022-10-17T05:13:59;8.93;;;4.37;;
9080;SDS011;13509;50.760;6.080;2022-10-17T05:16:28;7.60;;;4.20;;
9080;SDS011;13509;50.760;6.080;2022-10-17T05:18:57;5.97;;;4.07;;
9080;SDS011;13509;50.760;6.080;2022-10-17T05:21:27;9.83;;;4.30;;
9080;SDS011;13509;50.760;6.080;2022-10-17T05:23:56;5.80;;;4.40;;
9080;SDS011;13509;50.760;6.080;2022-10-17T05:26:24;7.03;;;4.43;;
9080;SDS011;13509;50.760;6.080;2022-10-17T05:28:52;7.30;;;4.10;;
9080;SDS011;13509;50.760;6.080;2022-10-17T05:31:21;5.27;;;4.30;;
9080;SDS011;13509;50.760;6.080;2022-10-17T05:33:49;4.70;;;4.17;;
9080;SDS011;13509;50.760;6.080;2022-10-17T05:36:17;4.10;;;3.70;;
9080;SDS011;13509;50.760;6.080;2022-10-17T05:38:48;7.30;;;4.40;;
9080;SDS011;13509;50.760;6.080;2022-10-17T05:41:17;4.70;;;4.07;;
9080;SDS011;13509;50.760;6.080;2022-10-17T05:43:45;8.10;;;4.40;;
9080;SDS011;13509;50.760;6.080;2022-10-17T05:46:15;5.60;;;4.47;;
9080;SDS011;13509;50.760;6.080;2022-10-17T05:48:43;9.83;;;4.50;;
9080;SDS011;13509;50.760;6.080;2022-10-17T05:51:11;5.53;;;4.10;;
9080;SDS011;13509;50.760;6.080;2022-10-17T05:53:40;6.37;;;4.37;;
9080;SDS011;13509;50.760;6.080;2022-10-17T05:56:10;6.80;;;4.40;;
9080;SDS011;13509;50.760;6.080;2022-10-17T05:58:40;4.47;;;4.07;;
9080;SDS011;13509;50.760;6.080;2022-10-17T06:01:20;7.53;;;4.70;;
9080;SDS011;13509;50.760;6.080;2022-10-17T06:03:49;7.40;;;4.30;;
9080;SDS011;13509;50.760;6.080;2022-10-17T06:06:17;6.40;;;4.53;;
9080;SDS011;13509;50.760;6.080;2022-10-17T06:08:45;6.30;;;4.50;;
9080;SDS011;13509;50.760;6.080;2022-10-17T06:11:15;5.63;;;3.60;;
9080;SDS011;13509;50.760;6.080;2022-10-17T06:13:43;10.70;;;4.50;;
9080;SDS011;13509;50.760;6.080;2022-10-17T06:16:11;10.17;;;4.00;;
9080;SDS011;13509;50.760;6.080;2022-10-17T06:18:39;14.90;;;4.10;;
9080;SDS011;13509;50.760;6.080;2022-10-17T06:21:09;9.83;;;3.80;;
9080;SDS011;13509;50.760;6.080;2022-10-17T06:23:38;8.93;;;4.43;;
9080;SDS011;13509;50.760;6.080;2022-10-17T06:26:06;5.20;;;3.73;;
9080;SDS011;13509;50.760;6.080;2022-10-17T06:28:36;5.67;;;3.77;;
9080;SDS011;13509;50.760;6.080;2022-10-17T06:31:05;5.67;;;4.00;;
9080;SDS011;13509;50.760;6.080;2022-10-17T06:33:33;5.47;;;4.10;;
9080;SDS011;13509;50.760;6.080;2022-10-17T06:36:02;9.20;;;4.77;;
9080;SDS011;13509;50.760;6.080;2022-10-17T06:38:30;7.40;;;4.83;;
9080;SDS011;13509;50.760;6.080;2022-10-17T06:41:02;8.40;;;3.50;;
9080;SDS011;13509;50.760;6.080;2022-10-17T06:43:33;5.60;;;4.00;;
9080;SDS011;13509;50.760;6.080;2022-10-17T06:46:02;5.97;;;3.67;;
9080;SDS011;13509;50.760;6.080;2022-10-17T06:48:31;7.33;;;3.37;;
9080;SDS011;13509;50.760;6.080;2022-10-17T06:51:00;5.80;;;3.30;;
9080;SDS011;13509;50.760;6.080;2022-10-17T06:53:28;5.37;;;3.33;;
9080;SDS011;13509;50.760;6.080;2022-10-17T06:55:56;10.43;;;4.10;;
9080;SDS011;13509;50.760;6.080;2022-10-17T06:58:28;6.53;;;3.30;;
9080;SDS011;13509;50.760;6.080;2022-10-17T07:00:57;7.30;;;3.50;;
9080;SDS011;13509;50.760;6.080;2022-10-17T07:03:28;6.27;;;3.50;;
9080;SDS011;13509;50.760;6.080;2022-10-17T07:05:56;8.70;;;3.23;;
9080;SDS011;13509;50.760;6.080;2022-10-17T07:08:25;5.20;;;4.00;;
9080;SDS011;13509;50.760;6.080;2022-10-17T07:10:53;9.70;;;3.67;;
9080;SDS011;13509;50.760;6.080;2022-10-17T07:13:21;7.37;;;3.00;;
9080;SDS011;13509;50.760;6.080;2022-10-17T07:15:50;5.53;;;3.13;;
9080;SDS011;13509;50.760;6.080;2022-10-17T07:18:23;10.20;;;4.87;;
9080;SDS011;13509;50.760;6.080;2022-10-17T07:20:53;12.67;;;4.53;;
9080;SDS011;13509;50.760;6.080;2022-10-17T07:23:21;11.17;;;3.80;;
9080;SDS011;13509;50.760;6.080;2022-10-17T07:25:49;4.40;;;3.20;;
9080;SDS011;13509;50.760;6.080;2022-10-17T07:28:18;8.77;;;3.23;;
9080;SDS011;13509;50.760;6.080;2022-10-17T07:30:46;3.90;;;3.10;;
9080;SDS011;13509;50.760;6.080;2022-10-17T07:33:19;5.63;;;2.80;;
9080;SDS011;13509;50.760;6.080;2022-10-17T07:35:47;4.97;;;3.23;;
9080;SDS011;13509;50.760;6.080;2022-10-17T07:38:19;6.30;;;3.20;;
9080;SDS011;13509;50.760;6.080;2022-10-17T07:40:52;4.33;;;3.23;;
9080;SDS011;13509;50.760;6.080;2022-10-17T07:43:20;9.37;;;2.90;;
9080;SDS011;13509;50.760;6.080;2022-10-17T07:45:49;4.67;;;3.60;;
9080;SDS011;13509;50.760;6.080;2022-10-17T07:48:17;10.37;;;3.57;;
9080;SDS011;13509;50.760;6.080;2022-10-17T07:50:46;5.00;;;3.30;;
9080;SDS011;13509;50.760;6.080;2022-10-17T07:53:14;4.93;;;3.10;;
9080;SDS011;13509;50.760;6.080;2022-10-17T07:55:43;8.47;;;2.93;;
9080;SDS011;13509;50.760;6.080;2022-10-17T07:58:13;4.60;;;2.90;;
9080;SDS011;13509;50.760;6.080;2022-10-17T08:00:41;5.70;;;2.90;;
9080;SDS011;13509;50.760;6.080;2022-10-17T08:03:09;5.97;;;2.83;;
9080;SDS011;13509;50.760;6.080;2022-10-17T08:05:37;3.67;;;2.57;;
9080;SDS011;13509;50.760;6.080;2022-10-17T08:08:05;6.30;;;3.10;;
9080;SDS011;13509;50.760;6.080;2022-10-17T08:10:34;8.83;;;3.83;;
9080;SDS011;13509;50.760;6.080;2022-10-17T08:13:03;9.70;;;3.97;;
9080;SDS011;13509;50.760;6.080;2022-10-17T08:15:31;6.23;;;3.20;;
9080;SDS011;13509;50.760;6.080;2022-10-17T08:18:00;6.13;;;3.07;;
9080;SDS011;13509;50.760;6.080;2022-10-17T08:20:28;5.03;;;2.53;;
9080;SDS011;13509;50.760;6.080;2022-10-17T08:22:56;6.80;;;2.60;;
9080;SDS011;13509;50.760;6.080;2022-10-17T08:25:24;8.47;;;4.40;;
9080;SDS011;13509;50.760;6.080;2022-10-17T08:27:52;5.73;;;3.10;;
9080;SDS011;13509;50.760;6.080;2022-10-17T08:30:22;4.43;;;2.70;;
9080;SDS011;13509;50.760;6.080;2022-10-17T08:32:50;9.37;;;2.63;;
9080;SDS011;13509;50.760;6.080;2022-10-17T08:35:21;7.23;;;2.43;;
9080;SDS011;13509;50.760;6.080;2022-10-17T08:37:49;4.77;;;2.90;;
9080;SDS011;13509;50.760;6.080;2022-10-17T08:40:18;5.80;;;2.87;;
9080;SDS011;13509;50.760;6.080;2022-10-17T08:43:02;5.83;;;2.53;;
9080;SDS011;13509;50.760;6.080;2022-10-17T08:45:34;9.53;;;2.77;;
9080;SDS011;13509;50.760;6.080;2022-10-17T08:48:04;5.13;;;2.50;;
9080;SDS011;13509;50.760;6.080;2022-10-17T08:50:35;3.23;;;2.57;;
9080;SDS011;13509;50.760;6.080;2022-10-17T08:53:05;5.10;;;2.73;;
9080;SDS011;13509;50.760;6.080;2022-10-17T08:55:36;5.50;;;3.33;;
9080;SDS011;13509;50.760;6.080;2022-10-17T08:58:11;7.13;;;3.70;;
9080;SDS011;13509;50.760;6.080;2022-10-17T09:00:42;5.30;;;3.40;;
9080;SDS011;13509;50.760;6.080;2022-10-17T09:03:15;7.70;;;2.93;;
9080;SDS011;13509;50.760;6.080;2022-10-17T09:05:48;6.97;;;2.60;;
9080;SDS011;13509;50.760;6.080;2022-10-17T09:08:21;8.47;;;2.67;;
9080;SDS011;13509;50.760;6.080;2022-10-17T09:10:54;4.93;;;2.73;;
9080;SDS011;13509;50.760;6.080;2022-10-17T09:13:25;4.17;;;2.87;;
9080;SDS011;13509;50.760;6.080;2022-10-17T09:15:59;7.67;;;2.80;;
9080;SDS011;13509;50.760;6.080;2022-10-17T09:18:32;3.50;;;2.87;;
9080;SDS011;13509;50.760;6.080;2022-10-17T09:21:04;4.80;;;2.60;;
9080;SDS011;13509;50.760;6.080;2022-10-17T09:23:35;4.67;;;2.67;;
9080;SDS011;13509;50.760;6.080;2022-10-17T09:26:07;7.60;;;2.93;;
9080;SDS011;13509;50.760;6.080;2022-10-17T09:28:37;6.00;;;2.83;;
9080;SDS011;13509;50.760;6.080;2022-10-17T09:31:09;5.87;;;2.70;;
9080;SDS011;13509;50.760;6.080;2022-10-17T09:33:39;7.47;;;2.97;;
9080;SDS011;13509;50.760;6.080;2022-10-17T09:36:20;6.83;;;2.83;;
9080;SDS011;13509;50.760;6.080;2022-10-17T09:38:50;3.60;;;2.67;;
9080;SDS011;13509;50.760;6.080;2022-10-17T09:41:20;8.03;;;2.90;;
9080;SDS011;13509;50.760;6.080;2022-10-17T09:44:14;3.90;;;2.43;;
9080;SDS011;13509;50.760;6.080;2022-10-17T09:46:46;3.60;;;2.70;;
9080;SDS011;13509;50.760;6.080;2022-10-17T09:49:18;6.07;;;2.53;;
9080;SDS011;13509;50.760;6.080;2022-10-17T09:51:48;5.10;;;3.43;;
9080;SDS011;13509;50.760;6.080;2022-10-17T09:54:18;8.53;;;3.07;;
9080;SDS011;13509;50.760;6.080;2022-10-17T09:56:56;6.00;;;2.90;;
9080;SDS011;13509;50.760;6.080;2022-10-17T09:59:29;4.03;;;2.70;;
9080;SDS011;13509;50.760;6.080;2022-10-17T10:02:12;6.87;;;2.90;;
9080;SDS011;13509;50.760;6.080;2022-10-17T10:04:51;4.40;;;2.40;;
9080;SDS011;13509;50.760;6.080;2022-10-17T10:07:36;3.30;;;2.40;;
9080;SDS011;13509;50.760;6.080;2022-10-17T10:10:05;7.80;;;2.70;;
9080;SDS011;13509;50.760;6.080;2022-10-17T10:12:34;4.20;;;3.00;;
9080;SDS011;13509;50.760;6.080;2022-10-17T10:15:22;6.40;;;2.77;;
9080;SDS011;13509;50.760;6.080;2022-10-17T10:17:58;7.83;;;2.83;;
9080;SDS011;13509;50.760;6.080;2022-10-17T10:20:28;6.30;;;2.73;;
9080;SDS011;13509;50.760;6.080;2022-10-17T10:25:53;5.97;;;2.90;;
9080;SDS011;13509;50.760;6.080;2022-10-17T10:28:22;4.73;;;3.23;;
9080;SDS011;13509;50.760;6.080;2022-10-17T10:30:52;10.23;;;3.73;;
9080;SDS011;13509;50.760;6.080;2022-10-17T10:33:24;8.80;;;3.03;;
9080;SDS011;13509;50.760;6.080;2022-10-17T10:35:54;7.37;;;3.00;;
9080;SDS011;13509;50.760;6.080;2022-10-17T10:38:23;4.83;;;2.50;;
9080;SDS011;13509;50.760;6.080;2022-10-17T10:40:52;7.90;;;2.70;;
9080;SDS011;13509;50.760;6.080;2022-10-17T10:43:21;9.30;;;3.50;;
9080;SDS011;13509;50.760;6.080;2022-10-17T10:45:50;13.07;;;4.60;;
9080;SDS011;13509;50.760;6.080;2022-10-17T10:48:20;5.67;;;4.03;;
9080;SDS011;13509;50.760;6.080;2022-10-17T10:50:50;6.37;;;3.03;;
9080;SDS011;13509;50.760;6.080;2022-10-17T10:53:24;6.07;;;3.20;;
9080;SDS011;13509;50.760;6.080;2022-10-17T10:56:01;8.07;;;3.17;;
9080;SDS011;13509;50.760;6.080;2022-10-17T10:58:35;5.53;;;2.70;;
9080;SDS011;13509;50.760;6.080;2022-10-17T11:01:11;4.97;;;2.60;;
9080;SDS011;13509;50.760;6.080;2022-10-17T11:03:40;7.53;;;3.27;;
9080;SDS011;13509;50.760;6.080;2022-10-17T11:06:12;5.80;;;2.87;;
9080;SDS011;13509;50.760;6.080;2022-10-17T11:08:42;6.77;;;2.73;;
9080;SDS011;13509;50.760;6.080;2022-10-17T11:11:13;6.30;;;2.90;;
9080;SDS011;13509;50.760;6.080;2022-10-17T11:13:45;2.93;;;2.60;;
9080;SDS011;13509;50.760;6.080;2022-10-17T11:16:22;6.57;;;2.90;;
9080;SDS011;13509;50.760;6.080;2022-10-17T11:18:51;3.83;;;2.57;;
9080;SDS011;13509;50.760;6.080;2022-10-17T11:21:25;6.77;;;3.00;;
9080;SDS011;13509;50.760;6.080;2022-10-17T11:23:58;4.67;;;2.70;;
9080;SDS011;13509;50.760;6.080;2022-10-17T11:26:34;5.70;;;2.60;;
9080;SDS011;13509;50.760;6.080;2022-10-17T11:29:05;6.77;;;2.90;;
9080;SDS011;13509;50.760;6.080;2022-10-17T11:31:36;7.30;;;2.87;;
9080;SDS011;13509;50.760;6.080;2022-10-17T11:34:06;10.00;;;3.30;;
9080;SDS011;13509;50.760;6.080;2022-10-17T11:36:38;6.17;;;2.50;;
9080;SDS011;13509;50.760;6.080;2022-10-17T11:39:09;6.57;;;2.33;;
9080;SDS011;13509;50.760;6.080;2022-10-17T11:41:39;7.00;;;2.97;;
9080;SDS011;13509;50.760;6.080;2022-10-17T11:44:11;3.80;;;2.30;;
9080;SDS011;13509;50.760;6.080;2022-10-17T11:46:41;6.20;;;2.70;;
9080;SDS011;13509;50.760;6.080;2022-10-17T11:49:11;7.57;;;2.40;;
9080;SDS011;13509;50.760;6.080;2022-10-17T11:51:47;3.67;;;2.43;;
9080;SDS011;13509;50.760;6.080;2022-10-17T11:54:27;7.60;;;3.00;;
9080;SDS011;13509;50.760;6.080;2022-10-17T11:57:02;10.40;;;3.43;;
9080;SDS011;13509;50.760;6.080;2022-10-17T12:02:27;6.47;;;2.47;;
9080;SDS011;13509;50.760;6.080;2022-10-17T12:04:59;7.53;;;2.70;;
9080;SDS011;13509;50.760;6.080;2022-10-17T12:07:35;4.97;;;2.53;;
9080;SDS011;13509;50.760;6.080;2022-10-17T12:10:06;5.97;;;2.60;;
9080;SDS011;13509;50.760;6.080;2022-10-17T12:12:44;6.13;;;2.30;;
9080;SDS011;13509;50.760;6.080;2022-10-17T12:15:26;6.83;;;2.20;;
9080;SDS011;13509;50.760;6.080;2022-10-17T12:17:55;6.93;;;2.23;;
9080;SDS011;13509;50.760;6.080;2022-10-17T12:20:30;6.97;;;2.33;;
9080;SDS011;13509;50.760;6.080;2022-10-17T12:23:02;5.03;;;2.10;;
9080;SDS011;13509;50.760;6.080;2022-10-17T12:25:32;8.23;;;2.43;;
9080;SDS011;13509;50.760;6.080;2022-10-17T12:28:11;6.47;;;2.40;;
9080;SDS011;13509;50.760;6.080;2022-10-17T12:33:29;6.20;;;2.30;;
9080;SDS011;13509;50.760;6.080;2022-10-17T12:38:48;4.20;;;2.33;;
9080;SDS011;13509;50.760;6.080;2022-10-17T12:41:17;9.03;;;2.70;;
9080;SDS011;13509;50.760;6.080;2022-10-17T12:44:05;5.70;;;2.37;;
9080;SDS011;13509;50.760;6.080;2022-10-17T12:46:56;6.93;;;2.50;;
9080;SDS011;13509;50.760;6.080;2022-10-17T12:55:04;7.23;;;2.47;;
9080;SDS011;13509;50.760;6.080;2022-10-17T12:57:40;7.43;;;2.60;;
9080;SDS011;13509;50.760;6.080;2022-10-17T13:00:14;8.10;;;2.47;;
9080;SDS011;13509;50.760;6.080;2022-10-17T13:02:43;5.47;;;2.23;;
9080;SDS011;13509;50.760;6.080;2022-10-17T13:05:13;5.60;;;2.37;;
9080;SDS011;13509;50.760;6.080;2022-10-17T13:07:43;5.20;;;2.47;;
9080;SDS011;13509;50.760;6.080;2022-10-17T13:10:19;6.20;;;2.73;;
9080;SDS011;13509;50.760;6.080;2022-10-17T13:12:48;7.30;;;2.80;;
9080;SDS011;13509;50.760;6.080;2022-10-17T13:15:17;7.43;;;2.20;;
9080;SDS011;13509;50.760;6.080;2022-10-17T13:17:53;7.87;;;2.60;;
9080;SDS011;13509;50.760;6.080;2022-10-17T13:20:23;8.77;;;2.47;;
9080;SDS011;13509;50.760;6.080;2022-10-17T13:22:56;3.73;;;2.40;;
9080;SDS011;13509;50.760;6.080;2022-10-17T13:25:26;6.30;;;2.37;;
9080;SDS011;13509;50.760;6.080;2022-10-17T13:30:44;4.53;;;2.03;;
9080;SDS011;13509;50.760;6.080;2022-10-17T13:33:17;6.13;;;2.20;;
9080;SDS011;13509;50.760;6.080;2022-10-17T13:35:45;4.77;;;2.20;;
9080;SDS011;13509;50.760;6.080;2022-10-17T13:38:26;7.70;;;2.47;;
9080;SDS011;13509;50.760;6.080;2022-10-17T13:40:56;5.93;;;2.50;;
9080;SDS011;13509;50.760;6.080;2022-10-17T13:43:42;8.83;;;2.47;;
9080;SDS011;13509;50.760;6.080;2022-10-17T13:46:13;8.60;;;2.63;;
9080;SDS011;13509;50.760;6.080;2022-10-17T13:49:07;8.03;;;2.50;;
9080;SDS011;13509;50.760;6.080;2022-10-17T13:51:36;7.00;;;2.20;;
9080;SDS011;13509;50.760;6.080;2022-10-17T13:54:15;7.43;;;2.40;;
9080;SDS011;13509;50.760;6.080;2022-10-17T13:56:45;8.33;;;2.37;;
9080;SDS011;13509;50.760;6.080;2022-10-17T13:59:17;3.17;;;2.13;;
9080;SDS011;13509;50.760;6.080;2022-10-17T14:01:46;5.23;;;2.23;;
9080;SDS011;13509;50.760;6.080;2022-10-17T14:04:15;9.47;;;2.87;;
9080;SDS011;13509;50.760;6.080;2022-10-17T14:06:45;6.13;;;2.70;;
9080;SDS011;13509;50.760;6.080;2022-10-17T14:09:19;10.53;;;2.80;;
9080;SDS011;13509;50.760;6.080;2022-10-17T14:11:57;5.63;;;2.70;;
9080;SDS011;13509;50.760;6.080;2022-10-17T14:14:26;7.33;;;2.97;;
9080;SDS011;13509;50.760;6.080;2022-10-17T14:17:10;8.80;;;2.67;;
9080;SDS011;13509;50.760;6.080;2022-10-17T14:19:39;5.40;;;2.47;;
9080;SDS011;13509;50.760;6.080;2022-10-17T14:22:14;10.63;;;2.70;;
9080;SDS011;13509;50.760;6.080;2022-10-17T14:24:43;6.90;;;2.80;;
9080;SDS011;13509;50.760;6.080;2022-10-17T14:27:26;7.47;;;2.60;;
9080;SDS011;13509;50.760;6.080;2022-10-17T14:29:56;6.80;;;2.70;;
9080;SDS011;13509;50.760;6.080;2022-10-17T14:32:26;6.37;;;2.67;;
9080;SDS011;13509;50.760;6.080;2022-10-17T14:34:55;5.00;;;2.50;;
9080;SDS011;13509;50.760;6.080;2022-10-17T14:37:44;6.97;;;3.00;;
9080;SDS011;13509;50.760;6.080;2022-10-17T14:40:14;8.67;;;3.60;;
9080;SDS011;13509;50.760;6.080;2022-10-17T14:42:45;4.97;;;2.50;;
9080;SDS011;13509;50.760;6.080;2022-10-17T14:45:16;6.40;;;3.20;;
9080;SDS011;13509;50.760;6.080;2022-10-17T14:47:49;8.87;;;3.27;;
9080;SDS011;13509;50.760;6.080;2022-10-17T14:50:20;11.83;;;3.33;;
9080;SDS011;13509;50.760;6.080;2022-10-17T14:52:57;6.67;;;3.17;;
9080;SDS011;13509;50.760;6.080;2022-10-17T14:55:27;5.03;;;2.70;;
9080;SDS011;13509;50.760;6.080;2022-10-17T14:57:57;6.23;;;2.77;;
9080;SDS011;13509;50.760;6.080;2022-10-17T15:00:25;5.70;;;2.67;;
9080;SDS011;13509;50.760;6.080;2022-10-17T15:02:54;6.17;;;2.90;;
9080;SDS011;13509;50.760;6.080;2022-10-17T15:05:22;5.53;;;2.87;;
9080;SDS011;13509;50.760;6.080;2022-10-17T15:07:51;4.30;;;3.13;;
9080;SDS011;13509;50.760;6.080;2022-10-17T15:10:30;4.70;;;3.10;;
9080;SDS011;13509;50.760;6.080;2022-10-17T15:13:00;8.03;;;3.13;;
9080;SDS011;13509;50.760;6.080;2022-10-17T15:15:49;8.57;;;3.27;;
9080;SDS011;13509;50.760;6.080;2022-10-17T15:18:17;8.43;;;3.27;;
9080;SDS011;13509;50.760;6.080;2022-10-17T15:20:46;8.73;;;3.17;;
9080;SDS011;13509;50.760;6.080;2022-10-17T15:23:30;6.33;;;2.97;;
9080;SDS011;13509;50.760;6.080;2022-10-17T15:25:58;7.47;;;3.37;;
9080;SDS011;13509;50.760;6.080;2022-10-17T15:28:27;7.53;;;3.70;;
9080;SDS011;13509;50.760;6.080;2022-10-17T15:30:55;7.50;;;3.53;;
9080;SDS011;13509;50.760;6.080;2022-10-17T15:33:24;5.90;;;3.30;;
9080;SDS011;13509;50.760;6.080;2022-10-17T15:35:52;5.77;;;3.67;;
9080;SDS011;13509;50.760;6.080;2022-10-17T15:38:20;5.80;;;3.60;;
9080;SDS011;13509;50.760;6.080;2022-10-17T15:40:48;10.17;;;3.77;;
9080;SDS011;13509;50.760;6.080;2022-10-17T15:43:17;8.83;;;4.10;;
9080;SDS011;13509;50.760;6.080;2022-10-17T15:45:46;5.17;;;2.97;;
9080;SDS011;13509;50.760;6.080;2022-10-17T15:48:16;6.10;;;3.00;;
9080;SDS011;13509;50.760;6.080;2022-10-17T15:50:45;5.23;;;2.80;;